sensor_id;sensor_type;location;lat;lon;timestamp;P1;durP1;ratioP1;P2;durP2;ratioP2
2107;SDS011;1060;52.492;13.388;2023-03-01T00:02:03;17.83;;;14.95;;
2107;SDS011;1060;52.492;13.388;2023-03-01T00:04:55;23.15;;;16.52;;
2107;SDS011;1060;52.492;13.388;2023-03-01T00:07:35;15.77;;;12.98;;
2107;SDS011;1060;52.492;13.388;2023-03-01T00:10:02;20.58;;;16.48;;
2107;SDS011;1060;52.492;13.388;2023-03-01T00:13:00;26.48;;;13.80;;
2107;SDS011;1060;52.492;13.388;2023-03-01T00:15:41;23.40;;;16.48;;
2107;SDS011;1060;52.492;13.388;2023-03-01T00:18:19;21.30;;;15.00;;
2107;SDS011;1060;52.492;13.388;2023-03-01T00:21:05;21.50;;;14.70;;
2107;SDS011;1060;52.492;13.388;2023-03-01T00:26:30;16.13;;;14.18;;
2107;SDS011;1060;52.492;13.388;2023-03-01T00:29:23;24.75;;;13.77;;
2107;SDS011;1060;52.492;13.388;2023-03-01T00:32:02;18.55;;;14.93;;
2107;SDS011;1060;52.492;13.388;2023-03-01T00:34:33;17.48;;;13.57;;
2107;SDS011;1060;52.492;13.388;2023-03-01T00:37:03;21.88;;;15.20;;
2107;SDS011;1060;52.492;13.388;2023-03-01T00:39:33;20.13;;;14.98;;
2107;SDS011;1060;52.492;13.388;2023-03-01T00:42:05;17.85;;;15.27;;
2107;SDS011;1060;52.492;13.388;2023-03-01T00:44:42;15.50;;;13.88;;
2107;SDS011;1060;52.492;13.388;2023-03-01T00:47:12;19.80;;;13.48;;
2107;SDS011;1060;52.492;13.388;2023-03-01T00:50:02;17.33;;;14.07;;
2107;SDS011;1060;52.492;13.388;2023-03-01T00:52:42;16.98;;;14.85;;
2107;SDS011;1060;52.492;13.388;2023-03-01T00:55:15;22.20;;;15.93;;
2107;SDS011;1060;52.492;13.388;2023-03-01T00:58:00;21.83;;;14.38;;
2107;SDS011;1060;52.492;13.388;2023-03-01T01:01:11;20.83;;;17.85;;
2107;SDS011;1060;52.492;13.388;2023-03-01T01:03:32;21.52;;;15.32;;
2107;SDS011;1060;52.492;13.388;2023-03-01T01:05:58;18.83;;;16.52;;
2107;SDS011;1060;52.492;13.388;2023-03-01T01:08:37;28.33;;;19.15;;
2107;SDS011;1060;52.492;13.388;2023-03-01T01:11:13;23.02;;;15.63;;
2107;SDS011;1060;52.492;13.388;2023-03-01T01:13:45;18.30;;;16.40;;
2107;SDS011;1060;52.492;13.388;2023-03-01T01:16:19;16.85;;;15.15;;
2107;SDS011;1060;52.492;13.388;2023-03-01T01:19:16;18.90;;;14.20;;
2107;SDS011;1060;52.492;13.388;2023-03-01T01:21:48;17.08;;;14.30;;
2107;SDS011;1060;52.492;13.388;2023-03-01T01:24:24;23.30;;;13.43;;
2107;SDS011;1060;52.492;13.388;2023-03-01T01:27:00;15.25;;;13.75;;
2107;SDS011;1060;52.492;13.388;2023-03-01T01:29:31;23.17;;;16.92;;
2107;SDS011;1060;52.492;13.388;2023-03-01T01:32:09;17.90;;;16.05;;
2107;SDS011;1060;52.492;13.388;2023-03-01T01:34:38;21.85;;;18.13;;
2107;SDS011;1060;52.492;13.388;2023-03-01T01:37:08;22.05;;;18.40;;
2107;SDS011;1060;52.492;13.388;2023-03-01T01:39:37;22.60;;;15.60;;
2107;SDS011;1060;52.492;13.388;2023-03-01T01:42:04;19.92;;;15.23;;
2107;SDS011;1060;52.492;13.388;2023-03-01T01:44:32;20.17;;;15.95;;
2107;SDS011;1060;52.492;13.388;2023-03-01T01:47:03;36.00;;;16.65;;
2107;SDS011;1060;52.492;13.388;2023-03-01T01:49:32;23.65;;;16.02;;
2107;SDS011;1060;52.492;13.388;2023-03-01T01:54:44;22.63;;;16.40;;
2107;SDS011;1060;52.492;13.388;2023-03-01T01:57:26;19.55;;;15.25;;
2107;SDS011;1060;52.492;13.388;2023-03-01T02:00:22;19.52;;;14.40;;
2107;SDS011;1060;52.492;13.388;2023-03-01T02:03:29;15.30;;;13.55;;
2107;SDS011;1060;52.492;13.388;2023-03-01T02:09:40;20.85;;;16.55;;
2107;SDS011;1060;52.492;13.388;2023-03-01T02:12:17;21.90;;;14.82;;
2107;SDS011;1060;52.492;13.388;2023-03-01T02:14:57;23.70;;;17.00;;
2107;SDS011;1060;52.492;13.388;2023-03-01T02:17:54;19.10;;;17.13;;
2107;SDS011;1060;52.492;13.388;2023-03-01T02:23:50;19.83;;;15.05;;
2107;SDS011;1060;52.492;13.388;2023-03-01T02:28:58;21.33;;;16.38;;
2107;SDS011;1060;52.492;13.388;2023-03-01T02:31:36;20.35;;;15.65;;
2107;SDS011;1060;52.492;13.388;2023-03-01T02:34:16;18.73;;;16.75;;
2107;SDS011;1060;52.492;13.388;2023-03-01T02:36:47;17.98;;;16.08;;
2107;SDS011;1060;52.492;13.388;2023-03-01T02:39:28;17.95;;;15.70;;
2107;SDS011;1060;52.492;13.388;2023-03-01T02:42:08;23.50;;;15.00;;
2107;SDS011;1060;52.492;13.388;2023-03-01T02:45:00;20.45;;;15.82;;
2107;SDS011;1060;52.492;13.388;2023-03-01T02:47:36;18.08;;;15.40;;
2107;SDS011;1060;52.492;13.388;2023-03-01T02:50:09;20.63;;;16.83;;
2107;SDS011;1060;52.492;13.388;2023-03-01T02:53:21;15.23;;;13.25;;
2107;SDS011;1060;52.492;13.388;2023-03-01T02:55:26;18.15;;;14.30;;
2107;SDS011;1060;52.492;13.388;2023-03-01T02:57:53;17.80;;;14.55;;
2107;SDS011;1060;52.492;13.388;2023-03-01T03:00:26;23.45;;;15.90;;
2107;SDS011;1060;52.492;13.388;2023-03-01T03:02:54;23.75;;;15.15;;
2107;SDS011;1060;52.492;13.388;2023-03-01T03:05:28;19.58;;;14.27;;
2107;SDS011;1060;52.492;13.388;2023-03-01T03:07:56;14.75;;;13.25;;
2107;SDS011;1060;52.492;13.388;2023-03-01T03:13:39;14.27;;;12.77;;
2107;SDS011;1060;52.492;13.388;2023-03-01T03:16:20;21.17;;;13.18;;
2107;SDS011;1060;52.492;13.388;2023-03-01T03:18:46;22.02;;;16.00;;
2107;SDS011;1060;52.492;13.388;2023-03-01T03:21:23;17.10;;;15.13;;
2107;SDS011;1060;52.492;13.388;2023-03-01T03:23:58;19.80;;;17.75;;
2107;SDS011;1060;52.492;13.388;2023-03-01T03:26:24;24.10;;;16.70;;
2107;SDS011;1060;52.492;13.388;2023-03-01T03:29:04;30.27;;;17.27;;
2107;SDS011;1060;52.492;13.388;2023-03-01T03:31:30;19.02;;;15.52;;
2107;SDS011;1060;52.492;13.388;2023-03-01T03:34:01;22.75;;;18.48;;
2107;SDS011;1060;52.492;13.388;2023-03-01T03:36:30;19.25;;;16.10;;
2107;SDS011;1060;52.492;13.388;2023-03-01T03:39:23;23.10;;;18.65;;
2107;SDS011;1060;52.492;13.388;2023-03-01T03:41:49;31.63;;;17.58;;
2107;SDS011;1060;52.492;13.388;2023-03-01T03:44:19;20.88;;;14.23;;
2107;SDS011;1060;52.492;13.388;2023-03-01T03:46:45;22.15;;;16.70;;
2107;SDS011;1060;52.492;13.388;2023-03-01T03:49:14;27.80;;;18.48;;
2107;SDS011;1060;52.492;13.388;2023-03-01T03:51:56;20.58;;;15.80;;
2107;SDS011;1060;52.492;13.388;2023-03-01T03:54:23;24.50;;;18.65;;
2107;SDS011;1060;52.492;13.388;2023-03-01T03:56:58;20.17;;;15.88;;
2107;SDS011;1060;52.492;13.388;2023-03-01T04:02:17;26.58;;;17.08;;
2107;SDS011;1060;52.492;13.388;2023-03-01T04:05:00;21.10;;;16.55;;
2107;SDS011;1060;52.492;13.388;2023-03-01T04:07:29;21.02;;;15.98;;
2107;SDS011;1060;52.492;13.388;2023-03-01T04:09:58;27.25;;;19.85;;
2107;SDS011;1060;52.492;13.388;2023-03-01T04:12:25;17.50;;;15.57;;
2107;SDS011;1060;52.492;13.388;2023-03-01T04:15:02;19.77;;;16.48;;
2107;SDS011;1060;52.492;13.388;2023-03-01T04:17:38;17.15;;;15.00;;
2107;SDS011;1060;52.492;13.388;2023-03-01T04:20:08;18.90;;;16.90;;
2107;SDS011;1060;52.492;13.388;2023-03-01T04:22:36;24.75;;;17.00;;
2107;SDS011;1060;52.492;13.388;2023-03-01T04:25:03;24.38;;;16.70;;
2107;SDS011;1060;52.492;13.388;2023-03-01T04:27:33;25.13;;;17.02;;
2107;SDS011;1060;52.492;13.388;2023-03-01T04:30:02;26.92;;;17.60;;
2107;SDS011;1060;52.492;13.388;2023-03-01T04:32:29;25.10;;;16.92;;
2107;SDS011;1060;52.492;13.388;2023-03-01T04:34:57;21.17;;;16.60;;
2107;SDS011;1060;52.492;13.388;2023-03-01T04:37:31;22.73;;;19.50;;
2107;SDS011;1060;52.492;13.388;2023-03-01T04:40:02;27.08;;;18.25;;
2107;SDS011;1060;52.492;13.388;2023-03-01T04:42:51;25.15;;;17.60;;
2107;SDS011;1060;52.492;13.388;2023-03-01T04:45:20;21.00;;;15.95;;
2107;SDS011;1060;52.492;13.388;2023-03-01T04:47:51;23.42;;;19.25;;
2107;SDS011;1060;52.492;13.388;2023-03-01T04:50:20;29.77;;;16.73;;
2107;SDS011;1060;52.492;13.388;2023-03-01T04:53:04;29.35;;;20.77;;
2107;SDS011;1060;52.492;13.388;2023-03-01T04:55:34;27.58;;;18.00;;
2107;SDS011;1060;52.492;13.388;2023-03-01T04:58:14;22.83;;;16.98;;
2107;SDS011;1060;52.492;13.388;2023-03-01T05:00:45;17.00;;;15.27;;
2107;SDS011;1060;52.492;13.388;2023-03-01T05:03:24;21.05;;;17.98;;
2107;SDS011;1060;52.492;13.388;2023-03-01T05:06:14;25.98;;;16.83;;
2107;SDS011;1060;52.492;13.388;2023-03-01T05:08:55;18.00;;;16.13;;
2107;SDS011;1060;52.492;13.388;2023-03-01T05:11:22;26.17;;;16.92;;
2107;SDS011;1060;52.492;13.388;2023-03-01T05:13:50;21.52;;;17.40;;
2107;SDS011;1060;52.492;13.388;2023-03-01T05:16:25;30.17;;;20.20;;
2107;SDS011;1060;52.492;13.388;2023-03-01T05:19:10;23.65;;;18.70;;
2107;SDS011;1060;52.492;13.388;2023-03-01T05:21:40;24.52;;;18.02;;
2107;SDS011;1060;52.492;13.388;2023-03-01T05:24:28;26.98;;;16.90;;
2107;SDS011;1060;52.492;13.388;2023-03-01T05:26:55;26.80;;;18.85;;
2107;SDS011;1060;52.492;13.388;2023-03-01T05:29:25;23.50;;;19.38;;
2107;SDS011;1060;52.492;13.388;2023-03-01T05:32:44;25.77;;;19.08;;
2107;SDS011;1060;52.492;13.388;2023-03-01T05:35:14;31.20;;;19.48;;
2107;SDS011;1060;52.492;13.388;2023-03-01T05:40:32;33.63;;;18.95;;
2107;SDS011;1060;52.492;13.388;2023-03-01T05:43:20;25.88;;;20.42;;
2107;SDS011;1060;52.492;13.388;2023-03-01T05:45:52;36.53;;;21.70;;
2107;SDS011;1060;52.492;13.388;2023-03-01T05:49:14;23.05;;;19.08;;
2107;SDS011;1060;52.492;13.388;2023-03-01T05:51:47;22.13;;;19.50;;
2107;SDS011;1060;52.492;13.388;2023-03-01T05:54:29;27.10;;;22.38;;
2107;SDS011;1060;52.492;13.388;2023-03-01T05:56:55;24.55;;;21.35;;
2107;SDS011;1060;52.492;13.388;2023-03-01T05:59:24;27.10;;;20.70;;
2107;SDS011;1060;52.492;13.388;2023-03-01T06:01:56;26.73;;;22.50;;
2107;SDS011;1060;52.492;13.388;2023-03-01T06:04:44;28.05;;;21.98;;
2107;SDS011;1060;52.492;13.388;2023-03-01T06:07:11;31.50;;;27.20;;
2107;SDS011;1060;52.492;13.388;2023-03-01T06:10:04;25.58;;;21.13;;
2107;SDS011;1060;52.492;13.388;2023-03-01T06:33:55;35.05;;;23.33;;
2107;SDS011;1060;52.492;13.388;2023-03-01T06:39:09;29.88;;;23.77;;
2107;SDS011;1060;52.492;13.388;2023-03-01T06:42:11;28.90;;;21.30;;
2107;SDS011;1060;52.492;13.388;2023-03-01T06:44:52;29.20;;;26.08;;
2107;SDS011;1060;52.492;13.388;2023-03-01T06:47:24;25.73;;;21.95;;
2107;SDS011;1060;52.492;13.388;2023-03-01T06:50:14;26.55;;;22.70;;
2107;SDS011;1060;52.492;13.388;2023-03-01T06:55:31;27.55;;;21.25;;
2107;SDS011;1060;52.492;13.388;2023-03-01T06:58:24;27.40;;;22.42;;
2107;SDS011;1060;52.492;13.388;2023-03-01T07:00:50;27.88;;;20.88;;
2107;SDS011;1060;52.492;13.388;2023-03-01T07:03:27;32.42;;;25.70;;
2107;SDS011;1060;52.492;13.388;2023-03-01T07:06:19;27.33;;;21.33;;
2107;SDS011;1060;52.492;13.388;2023-03-01T07:08:51;28.17;;;23.45;;
2107;SDS011;1060;52.492;13.388;2023-03-01T07:11:39;29.10;;;21.30;;
2107;SDS011;1060;52.492;13.388;2023-03-01T07:14:05;33.65;;;26.00;;
2107;SDS011;1060;52.492;13.388;2023-03-01T07:16:32;27.60;;;22.35;;
2107;SDS011;1060;52.492;13.388;2023-03-01T07:19:08;34.72;;;22.52;;
2107;SDS011;1060;52.492;13.388;2023-03-01T07:21:34;30.30;;;21.33;;
2107;SDS011;1060;52.492;13.388;2023-03-01T07:24:05;27.90;;;24.48;;
2107;SDS011;1060;52.492;13.388;2023-03-01T07:26:31;23.60;;;21.08;;
2107;SDS011;1060;52.492;13.388;2023-03-01T07:29:00;25.70;;;22.02;;
2107;SDS011;1060;52.492;13.388;2023-03-01T07:31:26;32.40;;;25.10;;
2107;SDS011;1060;52.492;13.388;2023-03-01T07:33:53;30.92;;;23.23;;
2107;SDS011;1060;52.492;13.388;2023-03-01T07:36:19;37.28;;;29.35;;
2107;SDS011;1060;52.492;13.388;2023-03-01T07:38:46;35.13;;;23.58;;
2107;SDS011;1060;52.492;13.388;2023-03-01T07:41:12;32.25;;;25.73;;
2107;SDS011;1060;52.492;13.388;2023-03-01T07:43:39;23.60;;;21.20;;
2107;SDS011;1060;52.492;13.388;2023-03-01T07:46:08;24.60;;;20.42;;
2107;SDS011;1060;52.492;13.388;2023-03-01T07:48:40;26.02;;;21.70;;
2107;SDS011;1060;52.492;13.388;2023-03-01T07:51:06;30.05;;;22.65;;
2107;SDS011;1060;52.492;13.388;2023-03-01T07:53:33;25.50;;;22.05;;
2107;SDS011;1060;52.492;13.388;2023-03-01T07:56:09;23.58;;;18.75;;
2107;SDS011;1060;52.492;13.388;2023-03-01T07:58:36;22.17;;;18.30;;
2107;SDS011;1060;52.492;13.388;2023-03-01T08:01:04;22.90;;;20.27;;
2107;SDS011;1060;52.492;13.388;2023-03-01T08:03:31;21.80;;;19.35;;
2107;SDS011;1060;52.492;13.388;2023-03-01T08:06:03;24.55;;;21.88;;
2107;SDS011;1060;52.492;13.388;2023-03-01T08:08:36;28.17;;;19.20;;
2107;SDS011;1060;52.492;13.388;2023-03-01T08:11:04;20.90;;;17.25;;
2107;SDS011;1060;52.492;13.388;2023-03-01T08:13:35;21.38;;;19.27;;
2107;SDS011;1060;52.492;13.388;2023-03-01T08:16:05;25.30;;;18.60;;
2107;SDS011;1060;52.492;13.388;2023-03-01T08:18:33;19.00;;;16.73;;
2107;SDS011;1060;52.492;13.388;2023-03-01T08:21:03;17.70;;;15.90;;
2107;SDS011;1060;52.492;13.388;2023-03-01T08:23:33;17.95;;;15.70;;
2107;SDS011;1060;52.492;13.388;2023-03-01T08:26:06;18.48;;;12.82;;
2107;SDS011;1060;52.492;13.388;2023-03-01T08:28:33;15.93;;;14.35;;
2107;SDS011;1060;52.492;13.388;2023-03-01T08:30:59;14.20;;;12.85;;
2107;SDS011;1060;52.492;13.388;2023-03-01T08:33:25;13.82;;;12.43;;
2107;SDS011;1060;52.492;13.388;2023-03-01T08:35:51;18.48;;;15.80;;
2107;SDS011;1060;52.492;13.388;2023-03-01T08:38:18;13.48;;;12.13;;
2107;SDS011;1060;52.492;13.388;2023-03-01T08:40:44;12.80;;;11.45;;
2107;SDS011;1060;52.492;13.388;2023-03-01T08:43:10;12.95;;;11.13;;
2107;SDS011;1060;52.492;13.388;2023-03-01T08:45:37;13.45;;;9.55;;
2107;SDS011;1060;52.492;13.388;2023-03-01T08:48:03;10.13;;;9.07;;
2107;SDS011;1060;52.492;13.388;2023-03-01T08:50:29;15.05;;;8.68;;
2107;SDS011;1060;52.492;13.388;2023-03-01T08:52:55;14.02;;;9.25;;
2107;SDS011;1060;52.492;13.388;2023-03-01T08:55:22;14.35;;;8.73;;
2107;SDS011;1060;52.492;13.388;2023-03-01T08:57:48;15.70;;;11.00;;
2107;SDS011;1060;52.492;13.388;2023-03-01T09:00:14;8.48;;;7.28;;
2107;SDS011;1060;52.492;13.388;2023-03-01T09:02:42;8.27;;;7.57;;
2107;SDS011;1060;52.492;13.388;2023-03-01T09:05:15;9.13;;;8.15;;
2107;SDS011;1060;52.492;13.388;2023-03-01T09:07:41;12.07;;;6.22;;
2107;SDS011;1060;52.492;13.388;2023-03-01T09:10:08;8.70;;;7.90;;
2107;SDS011;1060;52.492;13.388;2023-03-01T09:12:34;19.15;;;9.30;;
2107;SDS011;1060;52.492;13.388;2023-03-01T09:15:00;9.60;;;8.30;;
2107;SDS011;1060;52.492;13.388;2023-03-01T09:17:27;18.15;;;8.68;;
2107;SDS011;1060;52.492;13.388;2023-03-01T09:20:02;17.27;;;8.95;;
2107;SDS011;1060;52.492;13.388;2023-03-01T09:22:38;8.98;;;7.22;;
2107;SDS011;1060;52.492;13.388;2023-03-01T09:25:07;9.18;;;6.45;;
2107;SDS011;1060;52.492;13.388;2023-03-01T09:27:33;12.05;;;8.05;;
2107;SDS011;1060;52.492;13.388;2023-03-01T09:29:59;12.13;;;9.20;;
2107;SDS011;1060;52.492;13.388;2023-03-01T09:32:26;10.05;;;7.25;;
2107;SDS011;1060;52.492;13.388;2023-03-01T09:34:52;10.20;;;8.57;;
2107;SDS011;1060;52.492;13.388;2023-03-01T09:37:32;11.18;;;8.20;;
2107;SDS011;1060;52.492;13.388;2023-03-01T09:40:01;11.73;;;8.45;;
2107;SDS011;1060;52.492;13.388;2023-03-01T09:42:45;10.73;;;8.68;;
2107;SDS011;1060;52.492;13.388;2023-03-01T09:45:15;11.88;;;8.73;;
2107;SDS011;1060;52.492;13.388;2023-03-01T09:47:48;11.98;;;8.85;;
2107;SDS011;1060;52.492;13.388;2023-03-01T09:50:16;13.27;;;9.02;;
2107;SDS011;1060;52.492;13.388;2023-03-01T09:55:17;7.50;;;6.60;;
2107;SDS011;1060;52.492;13.388;2023-03-01T09:57:55;8.40;;;6.72;;
2107;SDS011;1060;52.492;13.388;2023-03-01T10:03:08;10.15;;;7.10;;
2107;SDS011;1060;52.492;13.388;2023-03-01T10:08:37;7.03;;;6.13;;
2107;SDS011;1060;52.492;13.388;2023-03-01T10:14:05;14.03;;;7.07;;
2107;SDS011;1060;52.492;13.388;2023-03-01T10:19:17;8.95;;;7.68;;
2107;SDS011;1060;52.492;13.388;2023-03-01T10:21:52;16.77;;;8.00;;
2107;SDS011;1060;52.492;13.388;2023-03-01T10:24:23;7.60;;;6.90;;
2107;SDS011;1060;52.492;13.388;2023-03-01T10:26:57;7.87;;;7.10;;
2107;SDS011;1060;52.492;13.388;2023-03-01T10:29:39;9.20;;;7.90;;
2107;SDS011;1060;52.492;13.388;2023-03-01T10:32:05;6.82;;;6.13;;
2107;SDS011;1060;52.492;13.388;2023-03-01T10:34:35;15.32;;;9.27;;
2107;SDS011;1060;52.492;13.388;2023-03-01T10:39:57;7.60;;;6.40;;
2107;SDS011;1060;52.492;13.388;2023-03-01T10:42:39;12.32;;;7.22;;
2107;SDS011;1060;52.492;13.388;2023-03-01T10:48:03;7.53;;;5.88;;
2107;SDS011;1060;52.492;13.388;2023-03-01T10:50:30;7.13;;;6.37;;
2107;SDS011;1060;52.492;13.388;2023-03-01T10:53:10;9.07;;;5.57;;
2107;SDS011;1060;52.492;13.388;2023-03-01T10:55:56;6.60;;;6.00;;
2107;SDS011;1060;52.492;13.388;2023-03-01T10:58:23;10.37;;;6.80;;
2107;SDS011;1060;52.492;13.388;2023-03-01T11:00:51;6.00;;;5.50;;
2107;SDS011;1060;52.492;13.388;2023-03-01T11:03:41;7.17;;;6.47;;
2107;SDS011;1060;52.492;13.388;2023-03-01T11:08:45;5.83;;;5.33;;
2107;SDS011;1060;52.492;13.388;2023-03-01T11:13:45;8.63;;;5.00;;
2107;SDS011;1060;52.492;13.388;2023-03-01T11:16:13;7.90;;;6.17;;
2107;SDS011;1060;52.492;13.388;2023-03-01T11:18:40;7.18;;;6.45;;
2107;SDS011;1060;52.492;13.388;2023-03-01T11:21:06;7.13;;;5.63;;
2107;SDS011;1060;52.492;13.388;2023-03-01T11:23:33;8.50;;;5.67;;
2107;SDS011;1060;52.492;13.388;2023-03-01T11:26:09;6.97;;;5.10;;
2107;SDS011;1060;52.492;13.388;2023-03-01T11:28:41;3.83;;;3.53;;
2107;SDS011;1060;52.492;13.388;2023-03-01T11:31:11;9.57;;;6.27;;
2107;SDS011;1060;52.492;13.388;2023-03-01T11:36:32;5.30;;;4.60;;
2107;SDS011;1060;52.492;13.388;2023-03-01T11:41:52;6.50;;;5.10;;
2107;SDS011;1060;52.492;13.388;2023-03-01T11:44:28;5.80;;;4.80;;
2107;SDS011;1060;52.492;13.388;2023-03-01T11:51:51;12.57;;;5.50;;
2107;SDS011;1060;52.492;13.388;2023-03-01T11:56:57;14.33;;;4.47;;
2107;SDS011;1060;52.492;13.388;2023-03-01T12:07:32;7.33;;;4.23;;
2107;SDS011;1060;52.492;13.388;2023-03-01T12:10:19;5.50;;;3.17;;
2107;SDS011;1060;52.492;13.388;2023-03-01T12:13:51;7.23;;;4.40;;
2107;SDS011;1060;52.492;13.388;2023-03-01T12:18:13;3.70;;;3.40;;
2107;SDS011;1060;52.492;13.388;2023-03-01T12:23:16;3.93;;;3.53;;
2107;SDS011;1060;52.492;13.388;2023-03-01T12:25:48;5.77;;;4.37;;
2107;SDS011;1060;52.492;13.388;2023-03-01T12:34:03;5.23;;;4.20;;
2107;SDS011;1060;52.492;13.388;2023-03-01T12:40:02;5.17;;;4.63;;
2107;SDS011;1060;52.492;13.388;2023-03-01T12:51:26;3.50;;;3.20;;
2107;SDS011;1060;52.492;13.388;2023-03-01T12:53:54;3.60;;;2.70;;
2107;SDS011;1060;52.492;13.388;2023-03-01T12:56:34;4.00;;;3.60;;
2107;SDS011;1060;52.492;13.388;2023-03-01T13:13:11;4.50;;;3.73;;
2107;SDS011;1060;52.492;13.388;2023-03-01T13:15:56;4.73;;;4.13;;
2107;SDS011;1060;52.492;13.388;2023-03-01T13:20:56;5.87;;;3.40;;
2107;SDS011;1060;52.492;13.388;2023-03-01T13:23:36;5.00;;;4.03;;
2107;SDS011;1060;52.492;13.388;2023-03-01T13:28:46;3.97;;;3.30;;
2107;SDS011;1060;52.492;13.388;2023-03-01T13:34:06;5.73;;;3.90;;
2107;SDS011;1060;52.492;13.388;2023-03-01T13:36:52;6.33;;;3.13;;
2107;SDS011;1060;52.492;13.388;2023-03-01T13:45:00;5.43;;;3.50;;
2107;SDS011;1060;52.492;13.388;2023-03-01T13:47:36;5.03;;;3.33;;
2107;SDS011;1060;52.492;13.388;2023-03-01T13:50:06;5.70;;;3.30;;
2107;SDS011;1060;52.492;13.388;2023-03-01T13:52:44;5.77;;;4.20;;
2107;SDS011;1060;52.492;13.388;2023-03-01T13:58:46;7.13;;;2.93;;
2107;SDS011;1060;52.492;13.388;2023-03-01T14:01:29;4.73;;;3.33;;
2107;SDS011;1060;52.492;13.388;2023-03-01T14:04:02;4.93;;;3.77;;
2107;SDS011;1060;52.492;13.388;2023-03-01T14:10:02;3.50;;;3.00;;
2107;SDS011;1060;52.492;13.388;2023-03-01T14:12:54;4.23;;;3.73;;
2107;SDS011;1060;52.492;13.388;2023-03-01T14:15:27;3.97;;;3.37;;
2107;SDS011;1060;52.492;13.388;2023-03-01T14:18:10;3.90;;;3.10;;
2107;SDS011;1060;52.492;13.388;2023-03-01T14:20:45;5.10;;;3.13;;
2107;SDS011;1060;52.492;13.388;2023-03-01T14:23:34;8.60;;;3.50;;
2107;SDS011;1060;52.492;13.388;2023-03-01T14:26:07;7.47;;;3.60;;
2107;SDS011;1060;52.492;13.388;2023-03-01T14:28:37;4.80;;;3.40;;
2107;SDS011;1060;52.492;13.388;2023-03-01T14:31:28;7.03;;;4.80;;
2107;SDS011;1060;52.492;13.388;2023-03-01T14:34:01;5.67;;;3.50;;
2107;SDS011;1060;52.492;13.388;2023-03-01T14:36:31;3.00;;;2.30;;
2107;SDS011;1060;52.492;13.388;2023-03-01T14:45:51;3.97;;;2.83;;
2107;SDS011;1060;52.492;13.388;2023-03-01T14:48:24;3.20;;;2.90;;
2107;SDS011;1060;52.492;13.388;2023-03-01T14:50:51;4.50;;;3.67;;
2107;SDS011;1060;52.492;13.388;2023-03-01T14:53:28;3.77;;;3.17;;
2107;SDS011;1060;52.492;13.388;2023-03-01T14:59:32;7.97;;;3.80;;
2107;SDS011;1060;52.492;13.388;2023-03-01T15:31:41;3.83;;;3.07;;
2107;SDS011;1060;52.492;13.388;2023-03-01T15:34:53;4.83;;;3.43;;
2107;SDS011;1060;52.492;13.388;2023-03-01T15:40:22;3.90;;;3.27;;
2107;SDS011;1060;52.492;13.388;2023-03-01T16:03:07;5.30;;;3.70;;
2107;SDS011;1060;52.492;13.388;2023-03-01T16:05:58;4.83;;;4.23;;
2107;SDS011;1060;52.492;13.388;2023-03-01T16:12:09;4.17;;;2.83;;
2107;SDS011;1060;52.492;13.388;2023-03-01T16:24:14;4.50;;;4.10;;
2107;SDS011;1060;52.492;13.388;2023-03-01T16:26:44;7.50;;;4.27;;
2107;SDS011;1060;52.492;13.388;2023-03-01T16:29:10;4.70;;;3.60;;
2107;SDS011;1060;52.492;13.388;2023-03-01T17:01:40;5.83;;;4.20;;
2107;SDS011;1060;52.492;13.388;2023-03-01T17:04:13;7.50;;;3.73;;
2107;SDS011;1060;52.492;13.388;2023-03-01T17:06:51;5.83;;;4.83;;
2107;SDS011;1060;52.492;13.388;2023-03-01T17:09:18;7.03;;;6.10;;
2107;SDS011;1060;52.492;13.388;2023-03-01T17:11:52;6.60;;;5.70;;
2107;SDS011;1060;52.492;13.388;2023-03-01T17:14:22;9.80;;;4.90;;
2107;SDS011;1060;52.492;13.388;2023-03-01T17:16:55;6.90;;;6.20;;
2107;SDS011;1060;52.492;13.388;2023-03-01T17:31:51;4.97;;;4.30;;
2107;SDS011;1060;52.492;13.388;2023-03-01T17:34:26;5.50;;;4.90;;
2107;SDS011;1060;52.492;13.388;2023-03-01T17:47:58;5.10;;;4.60;;
2107;SDS011;1060;52.492;13.388;2023-03-01T17:50:25;6.23;;;4.60;;
2107;SDS011;1060;52.492;13.388;2023-03-01T17:53:06;7.70;;;5.33;;
2107;SDS011;1060;52.492;13.388;2023-03-01T18:01:51;12.57;;;7.60;;
2107;SDS011;1060;52.492;13.388;2023-03-01T18:45:01;10.55;;;9.45;;
2107;SDS011;1060;52.492;13.388;2023-03-01T18:55:59;21.75;;;16.45;;
2107;SDS011;1060;52.492;13.388;2023-03-01T18:59:29;18.98;;;14.10;;
2107;SDS011;1060;52.492;13.388;2023-03-01T19:01:57;35.30;;;20.77;;
2107;SDS011;1060;52.492;13.388;2023-03-01T19:07:31;26.67;;;16.77;;
2107;SDS011;1060;52.492;13.388;2023-03-01T19:10:46;25.85;;;16.23;;
2107;SDS011;1060;52.492;13.388;2023-03-01T19:27:54;20.17;;;15.30;;
2107;SDS011;1060;52.492;13.388;2023-03-01T19:34:32;34.67;;;20.15;;
2107;SDS011;1060;52.492;13.388;2023-03-01T19:37:10;24.08;;;18.00;;
2107;SDS011;1060;52.492;13.388;2023-03-01T20:00:43;37.67;;;21.45;;
2107;SDS011;1060;52.492;13.388;2023-03-01T20:26:37;25.90;;;18.13;;
2107;SDS011;1060;52.492;13.388;2023-03-01T20:29:09;31.60;;;18.45;;
2107;SDS011;1060;52.492;13.388;2023-03-01T20:31:48;25.15;;;18.33;;
2107;SDS011;1060;52.492;13.388;2023-03-01T20:34:35;28.50;;;16.95;;
2107;SDS011;1060;52.492;13.388;2023-03-01T20:45:08;24.33;;;17.80;;
2107;SDS011;1060;52.492;13.388;2023-03-01T20:47:43;28.60;;;18.73;;
2107;SDS011;1060;52.492;13.388;2023-03-01T20:50:52;32.85;;;19.80;;
2107;SDS011;1060;52.492;13.388;2023-03-01T21:12:18;33.75;;;24.65;;
2107;SDS011;1060;52.492;13.388;2023-03-01T21:25:15;32.97;;;20.35;;
2107;SDS011;1060;52.492;13.388;2023-03-01T21:27:41;37.08;;;21.67;;
2107;SDS011;1060;52.492;13.388;2023-03-01T21:30:08;38.85;;;22.50;;
2107;SDS011;1060;52.492;13.388;2023-03-01T21:32:34;49.55;;;24.55;;
2107;SDS011;1060;52.492;13.388;2023-03-01T21:35:00;33.58;;;22.90;;
2107;SDS011;1060;52.492;13.388;2023-03-01T21:37:26;40.05;;;23.52;;
2107;SDS011;1060;52.492;13.388;2023-03-01T21:39:53;40.63;;;23.25;;
2107;SDS011;1060;52.492;13.388;2023-03-01T21:42:24;33.17;;;23.25;;
2107;SDS011;1060;52.492;13.388;2023-03-01T21:44:51;36.75;;;21.30;;
2107;SDS011;1060;52.492;13.388;2023-03-01T21:47:40;28.63;;;20.30;;
2107;SDS011;1060;52.492;13.388;2023-03-01T21:50:12;26.33;;;22.27;;
2107;SDS011;1060;52.492;13.388;2023-03-01T21:52:41;31.42;;;20.90;;
2107;SDS011;1060;52.492;13.388;2023-03-01T21:55:08;36.97;;;24.13;;
2107;SDS011;1060;52.492;13.388;2023-03-01T21:57:37;32.45;;;21.58;;
2107;SDS011;1060;52.492;13.388;2023-03-01T22:00:08;34.30;;;22.23;;
2107;SDS011;1060;52.492;13.388;2023-03-01T22:02:40;34.55;;;20.55;;
2107;SDS011;1060;52.492;13.388;2023-03-01T22:05:25;35.55;;;21.88;;
2107;SDS011;1060;52.492;13.388;2023-03-01T22:07:54;33.88;;;22.20;;
2107;SDS011;1060;52.492;13.388;2023-03-01T22:10:23;29.75;;;22.67;;
2107;SDS011;1060;52.492;13.388;2023-03-01T22:12:53;32.88;;;22.25;;
2107;SDS011;1060;52.492;13.388;2023-03-01T22:15:20;25.50;;;19.75;;
2107;SDS011;1060;52.492;13.388;2023-03-01T22:17:46;44.92;;;21.52;;
2107;SDS011;1060;52.492;13.388;2023-03-01T22:20:13;31.23;;;21.73;;
2107;SDS011;1060;52.492;13.388;2023-03-01T22:22:49;33.65;;;23.23;;
2107;SDS011;1060;52.492;13.388;2023-03-01T22:25:15;33.20;;;20.77;;
2107;SDS011;1060;52.492;13.388;2023-03-01T22:27:44;32.50;;;21.73;;
2107;SDS011;1060;52.492;13.388;2023-03-01T22:30:11;31.83;;;18.80;;
2107;SDS011;1060;52.492;13.388;2023-03-01T22:32:37;27.02;;;18.95;;
2107;SDS011;1060;52.492;13.388;2023-03-01T22:35:04;26.63;;;21.33;;
2107;SDS011;1060;52.492;13.388;2023-03-01T22:37:54;24.67;;;18.50;;
2107;SDS011;1060;52.492;13.388;2023-03-01T22:40:20;30.15;;;18.20;;
2107;SDS011;1060;52.492;13.388;2023-03-01T22:42:46;29.42;;;20.00;;
2107;SDS011;1060;52.492;13.388;2023-03-01T22:45:13;38.28;;;27.05;;
2107;SDS011;1060;52.492;13.388;2023-03-01T22:47:39;39.63;;;26.23;;